sensor_id;sensor_type;location;lat;lon;timestamp;temperature;humidity
3288;DHT22;3260;52.438;13.502;2022-08-19T04:00:42;21.40;10.80
3288;DHT22;3260;52.438;13.502;2022-08-19T04:03:11;21.40;9.50
3288;DHT22;3260;52.438;13.502;2022-08-19T04:05:39;21.40;7.80
3288;DHT22;3260;52.438;13.502;2022-08-19T04:08:07;21.40;8.20
3288;DHT22;3260;52.438;13.502;2022-08-19T04:10:39;21.40;8.60
3288;DHT22;3260;52.438;13.502;2022-08-19T04:13:08;21.40;10.30
3288;DHT22;3260;52.438;13.502;2022-08-19T04:15:39;21.50;10.10
3288;DHT22;3260;52.438;13.502;2022-08-19T04:18:10;21.50;9.50
3288;DHT22;3260;52.438;13.502;2022-08-19T04:20:40;21.50;7.00
3288;DHT22;3260;52.438;13.502;2022-08-19T04:23:10;21.60;6.20
3288;DHT22;3260;52.438;13.502;2022-08-19T04:25:40;21.60;4.90
3288;DHT22;3260;52.438;13.502;2022-08-19T04:28:11;21.70;1.80
3288;DHT22;3260;52.438;13.502;2022-08-19T04:30:43;21.80;1.00
3288;DHT22;3260;52.438;13.502;2022-08-19T04:33:15;21.80;1.00
3288;DHT22;3260;52.438;13.502;2022-08-19T04:35:54;21.90;1.00
3288;DHT22;3260;52.438;13.502;2022-08-19T04:38:24;22.00;1.00
3288;DHT22;3260;52.438;13.502;2022-08-19T04:40:52;22.10;1.00
3288;DHT22;3260;52.438;13.502;2022-08-19T04:43:38;22.20;1.00
3288;DHT22;3260;52.438;13.502;2022-08-19T04:46:07;22.20;1.00
3288;DHT22;3260;52.438;13.502;2022-08-19T04:48:55;22.30;1.00
3288;DHT22;3260;52.438;13.502;2022-08-19T04:51:24;22.40;1.00
3288;DHT22;3260;52.438;13.502;2022-08-19T04:53:52;22.50;1.00
3288;DHT22;3260;52.438;13.502;2022-08-19T04:56:21;22.50;1.00
3288;DHT22;3260;52.438;13.502;2022-08-19T04:58:49;22.60;1.00
3288;DHT22;3260;52.438;13.502;2022-08-19T05:01:20;22.70;1.00
3288;DHT22;3260;52.438;13.502;2022-08-19T05:03:50;22.70;1.00
3288;DHT22;3260;52.438;13.502;2022-08-19T05:06:21;22.80;1.00
3288;DHT22;3260;52.438;13.502;2022-08-19T05:08:51;22.90;1.00
3288;DHT22;3260;52.438;13.502;2022-08-19T05:11:23;22.90;1.00
3288;DHT22;3260;52.438;13.502;2022-08-19T05:13:52;23.00;1.00
3288;DHT22;3260;52.438;13.502;2022-08-19T05:16:23;23.10;1.00
3288;DHT22;3260;52.438;13.502;2022-08-19T05:18:53;23.10;1.00
3288;DHT22;3260;52.438;13.502;2022-08-19T05:21:42;23.20;1.00
3288;DHT22;3260;52.438;13.502;2022-08-19T05:24:28;23.20;1.00
3288;DHT22;3260;52.438;13.502;2022-08-19T05:26:57;23.30;1.00
3288;DHT22;3260;52.438;13.502;2022-08-19T05:29:27;23.30;1.00
3288;DHT22;3260;52.438;13.502;2022-08-19T05:32:03;23.40;1.00
3288;DHT22;3260;52.438;13.502;2022-08-19T05:34:35;23.50;1.00
3288;DHT22;3260;52.438;13.502;2022-08-19T05:37:06;23.60;1.00
3288;DHT22;3260;52.438;13.502;2022-08-19T05:39:36;23.70;1.00
3288;DHT22;3260;52.438;13.502;2022-08-19T05:42:07;23.70;1.00
3288;DHT22;3260;52.438;13.502;2022-08-19T05:44:40;23.80;1.00
3288;DHT22;3260;52.438;13.502;2022-08-19T05:47:11;23.80;1.00
3288;DHT22;3260;52.438;13.502;2022-08-19T05:49:42;23.90;1.00
3288;DHT22;3260;52.438;13.502;2022-08-19T05:52:14;23.90;1.00
3288;DHT22;3260;52.438;13.502;2022-08-19T05:54:45;24.00;1.00
3288;DHT22;3260;52.438;13.502;2022-08-19T05:57:17;24.10;1.00
3288;DHT22;3260;52.438;13.502;2022-08-19T05:59:46;24.10;1.00
3288;DHT22;3260;52.438;13.502;2022-08-19T06:02:18;24.20;1.00
3288;DHT22;3260;52.438;13.502;2022-08-19T06:04:47;24.20;1.00
3288;DHT22;3260;52.438;13.502;2022-08-19T06:07:17;24.30;1.00
3288;DHT22;3260;52.438;13.502;2022-08-19T06:09:46;24.40;1.00
3288;DHT22;3260;52.438;13.502;2022-08-19T06:12:26;24.40;1.00
3288;DHT22;3260;52.438;13.502;2022-08-19T06:14:57;24.50;1.00
3288;DHT22;3260;52.438;13.502;2022-08-19T06:17:27;24.60;1.00
3288;DHT22;3260;52.438;13.502;2022-08-19T06:19:57;24.70;1.00
3288;DHT22;3260;52.438;13.502;2022-08-19T06:22:28;24.80;1.00
3288;DHT22;3260;52.438;13.502;2022-08-19T06:24:56;24.90;1.00
3288;DHT22;3260;52.438;13.502;2022-08-19T06:27:24;25.00;1.00
3288;DHT22;3260;52.438;13.502;2022-08-19T06:29:52;25.10;1.00
3288;DHT22;3260;52.438;13.502;2022-08-19T06:32:20;25.10;1.00
3288;DHT22;3260;52.438;13.502;2022-08-19T06:34:48;25.10;1.00
3288;DHT22;3260;52.438;13.502;2022-08-19T06:37:16;25.30;1.00
3288;DHT22;3260;52.438;13.502;2022-08-19T06:39:46;25.30;1.00
3288;DHT22;3260;52.438;13.502;2022-08-19T06:42:14;25.30;1.00
3288;DHT22;3260;52.438;13.502;2022-08-19T06:44:47;25.40;1.00
3288;DHT22;3260;52.438;13.502;2022-08-19T06:47:21;25.50;1.00
3288;DHT22;3260;52.438;13.502;2022-08-19T06:49:54;25.50;1.00
3288;DHT22;3260;52.438;13.502;2022-08-19T06:52:27;25.60;1.00
3288;DHT22;3260;52.438;13.502;2022-08-19T06:54:56;25.60;1.00
3288;DHT22;3260;52.438;13.502;2022-08-19T06:57:26;25.60;1.00
3288;DHT22;3260;52.438;13.502;2022-08-19T06:59:59;25.70;1.00
3288;DHT22;3260;52.438;13.502;2022-08-19T07:02:27;25.70;1.00
3288;DHT22;3260;52.438;13.502;2022-08-19T07:04:56;25.70;1.00
3288;DHT22;3260;52.438;13.502;2022-08-19T07:07:25;25.70;1.00
3288;DHT22;3260;52.438;13.502;2022-08-19T07:09:53;25.70;1.00
3288;DHT22;3260;52.438;13.502;2022-08-19T07:12:29;25.70;1.00
3288;DHT22;3260;52.438;13.502;2022-08-19T07:15:01;25.80;1.00
3288;DHT22;3260;52.438;13.502;2022-08-19T07:17:31;25.90;1.00
3288;DHT22;3260;52.438;13.502;2022-08-19T07:20:00;26.10;1.00
3288;DHT22;3260;52.438;13.502;2022-08-19T07:22:35;26.20;1.00
3288;DHT22;3260;52.438;13.502;2022-08-19T07:25:06;26.40;1.00
3288;DHT22;3260;52.438;13.502;2022-08-19T07:27:37;26.50;1.00
3288;DHT22;3260;52.438;13.502;2022-08-19T07:30:06;26.60;1.00
3288;DHT22;3260;52.438;13.502;2022-08-19T07:32:38;26.70;1.00
3288;DHT22;3260;52.438;13.502;2022-08-19T07:35:07;26.80;1.00
3288;DHT22;3260;52.438;13.502;2022-08-19T07:37:36;26.90;1.00
3288;DHT22;3260;52.438;13.502;2022-08-19T07:40:07;27.00;1.00
3288;DHT22;3260;52.438;13.502;2022-08-19T07:42:37;27.10;1.00
3288;DHT22;3260;52.438;13.502;2022-08-19T07:45:07;27.20;1.00
3288;DHT22;3260;52.438;13.502;2022-08-19T07:47:36;27.30;1.00
3288;DHT22;3260;52.438;13.502;2022-08-19T07:50:17;27.30;1.00
3288;DHT22;3260;52.438;13.502;2022-08-19T07:52:47;27.30;1.00
3288;DHT22;3260;52.438;13.502;2022-08-19T07:55:19;27.30;1.00
3288;DHT22;3260;52.438;13.502;2022-08-19T07:58:12;27.30;1.00
3288;DHT22;3260;52.438;13.502;2022-08-19T08:00:44;27.30;1.00
3288;DHT22;3260;52.438;13.502;2022-08-19T08:03:15;27.30;1.00
3288;DHT22;3260;52.438;13.502;2022-08-19T08:05:46;27.30;1.00
3288;DHT22;3260;52.438;13.502;2022-08-19T08:08:32;27.40;1.00
3288;DHT22;3260;52.438;13.502;2022-08-19T08:11:19;27.50;1.00
3288;DHT22;3260;52.438;13.502;2022-08-19T08:13:51;27.70;1.00
3288;DHT22;3260;52.438;13.502;2022-08-19T08:16:33;27.90;1.00
3288;DHT22;3260;52.438;13.502;2022-08-19T08:19:13;28.00;1.00
3288;DHT22;3260;52.438;13.502;2022-08-19T08:21:52;28.10;1.00
3288;DHT22;3260;52.438;13.502;2022-08-19T08:24:21;28.30;1.00
3288;DHT22;3260;52.438;13.502;2022-08-19T08:26:54;28.40;1.00
3288;DHT22;3260;52.438;13.502;2022-08-19T08:29:25;28.40;1.00
3288;DHT22;3260;52.438;13.502;2022-08-19T08:32:01;28.60;1.00
3288;DHT22;3260;52.438;13.502;2022-08-19T08:34:39;28.60;1.00
3288;DHT22;3260;52.438;13.502;2022-08-19T08:37:08;28.80;1.00
3288;DHT22;3260;52.438;13.502;2022-08-19T08:39:36;28.80;1.00
3288;DHT22;3260;52.438;13.502;2022-08-19T08:42:08;28.90;1.00
3288;DHT22;3260;52.438;13.502;2022-08-19T08:44:51;29.00;1.00
3288;DHT22;3260;52.438;13.502;2022-08-19T08:47:28;29.10;1.00
3288;DHT22;3260;52.438;13.502;2022-08-19T08:50:06;29.00;1.00
3288;DHT22;3260;52.438;13.502;2022-08-19T08:52:43;29.10;1.00
3288;DHT22;3260;52.438;13.502;2022-08-19T08:55:15;29.20;1.00
3288;DHT22;3260;52.438;13.502;2022-08-19T08:57:52;29.30;1.00
3288;DHT22;3260;52.438;13.502;2022-08-19T09:00:26;29.40;1.00
3288;DHT22;3260;52.438;13.502;2022-08-19T09:02:58;29.50;1.00
3288;DHT22;3260;52.438;13.502;2022-08-19T09:05:35;29.40;1.00
3288;DHT22;3260;52.438;13.502;2022-08-19T09:08:20;29.40;1.00
3288;DHT22;3260;52.438;13.502;2022-08-19T09:10:56;29.30;1.00
3288;DHT22;3260;52.438;13.502;2022-08-19T09:13:30;29.50;1.00
3288;DHT22;3260;52.438;13.502;2022-08-19T09:16:07;29.60;1.00
3288;DHT22;3260;52.438;13.502;2022-08-19T09:18:39;29.90;1.00
3288;DHT22;3260;52.438;13.502;2022-08-19T09:21:10;30.20;1.00
3288;DHT22;3260;52.438;13.502;2022-08-19T09:23:38;30.40;1.00
3288;DHT22;3260;52.438;13.502;2022-08-19T09:26:08;30.60;1.00
3288;DHT22;3260;52.438;13.502;2022-08-19T09:28:43;30.70;1.00
3288;DHT22;3260;52.438;13.502;2022-08-19T09:31:18;30.70;1.00
3288;DHT22;3260;52.438;13.502;2022-08-19T09:33:48;30.90;1.00
3288;DHT22;3260;52.438;13.502;2022-08-19T09:36:20;30.70;1.00
3288;DHT22;3260;52.438;13.502;2022-08-19T09:39:00;30.20;1.00
3288;DHT22;3260;52.438;13.502;2022-08-19T09:41:41;29.90;1.00
3288;DHT22;3260;52.438;13.502;2022-08-19T09:44:15;29.50;1.00
3288;DHT22;3260;52.438;13.502;2022-08-19T09:46:46;29.20;1.00
3288;DHT22;3260;52.438;13.502;2022-08-19T09:49:15;28.80;1.00
3288;DHT22;3260;52.438;13.502;2022-08-19T09:51:45;28.60;1.00
3288;DHT22;3260;52.438;13.502;2022-08-19T09:54:17;28.40;1.00
3288;DHT22;3260;52.438;13.502;2022-08-19T09:56:49;28.20;1.00
3288;DHT22;3260;52.438;13.502;2022-08-19T09:59:18;28.10;1.00
3288;DHT22;3260;52.438;13.502;2022-08-19T10:01:48;28.20;1.00
3288;DHT22;3260;52.438;13.502;2022-08-19T10:04:16;28.40;1.00
3288;DHT22;3260;52.438;13.502;2022-08-19T10:06:49;28.60;1.00
3288;DHT22;3260;52.438;13.502;2022-08-19T10:09:19;28.90;1.00
3288;DHT22;3260;52.438;13.502;2022-08-19T10:12:01;29.10;1.00
3288;DHT22;3260;52.438;13.502;2022-08-19T10:14:31;29.20;1.00
3288;DHT22;3260;52.438;13.502;2022-08-19T10:17:02;29.30;1.00
3288;DHT22;3260;52.438;13.502;2022-08-19T10:19:45;29.50;1.00
3288;DHT22;3260;52.438;13.502;2022-08-19T10:22:22;29.40;1.00
3288;DHT22;3260;52.438;13.502;2022-08-19T10:24:51;29.40;1.00
3288;DHT22;3260;52.438;13.502;2022-08-19T10:27:20;29.20;1.00
3288;DHT22;3260;52.438;13.502;2022-08-19T10:29:48;28.90;1.00
3288;DHT22;3260;52.438;13.502;2022-08-19T10:32:17;28.70;1.00
3288;DHT22;3260;52.438;13.502;2022-08-19T10:35:00;28.30;1.00
3288;DHT22;3260;52.438;13.502;2022-08-19T10:37:31;27.90;1.00
3288;DHT22;3260;52.438;13.502;2022-08-19T10:40:00;27.50;1.00
3288;DHT22;3260;52.438;13.502;2022-08-19T10:42:29;27.30;1.00
3288;DHT22;3260;52.438;13.502;2022-08-19T10:44:58;27.20;1.00
3288;DHT22;3260;52.438;13.502;2022-08-19T10:47:28;27.20;1.00
3288;DHT22;3260;52.438;13.502;2022-08-19T10:49:57;27.30;1.00
3288;DHT22;3260;52.438;13.502;2022-08-19T10:52:45;27.40;1.00
3288;DHT22;3260;52.438;13.502;2022-08-19T10:55:18;27.50;1.00
3288;DHT22;3260;52.438;13.502;2022-08-19T10:58:11;27.40;1.00
3288;DHT22;3260;52.438;13.502;2022-08-19T11:00:40;27.30;1.00
3288;DHT22;3260;52.438;13.502;2022-08-19T11:03:11;27.10;1.00
3288;DHT22;3260;52.438;13.502;2022-08-19T11:05:39;27.00;1.00
3288;DHT22;3260;52.438;13.502;2022-08-19T11:08:08;26.90;1.00
3288;DHT22;3260;52.438;13.502;2022-08-19T11:10:49;26.90;1.00
3288;DHT22;3260;52.438;13.502;2022-08-19T11:13:20;26.70;1.00
3288;DHT22;3260;52.438;13.502;2022-08-19T11:15:56;26.70;1.00
3288;DHT22;3260;52.438;13.502;2022-08-19T11:18:34;26.80;1.00
3288;DHT22;3260;52.438;13.502;2022-08-19T11:21:12;26.90;1.00
3288;DHT22;3260;52.438;13.502;2022-08-19T11:23:45;27.10;1.00
3288;DHT22;3260;52.438;13.502;2022-08-19T11:26:14;27.00;1.00
3288;DHT22;3260;52.438;13.502;2022-08-19T11:28:43;26.90;1.00
3288;DHT22;3260;52.438;13.502;2022-08-19T11:31:14;26.80;1.00
3288;DHT22;3260;52.438;13.502;2022-08-19T11:33:46;26.60;1.00
3288;DHT22;3260;52.438;13.502;2022-08-19T11:36:18;26.60;1.00
3288;DHT22;3260;52.438;13.502;2022-08-19T11:38:47;26.60;1.00
3288;DHT22;3260;52.438;13.502;2022-08-19T11:41:18;26.70;1.00
3288;DHT22;3260;52.438;13.502;2022-08-19T11:43:47;26.90;1.00
3288;DHT22;3260;52.438;13.502;2022-08-19T11:46:17;26.90;1.00
3288;DHT22;3260;52.438;13.502;2022-08-19T11:48:46;26.90;1.00
3288;DHT22;3260;52.438;13.502;2022-08-19T11:51:18;26.80;1.00
3288;DHT22;3260;52.438;13.502;2022-08-19T11:53:48;26.90;1.00
3288;DHT22;3260;52.438;13.502;2022-08-19T11:56:17;27.00;1.00
3288;DHT22;3260;52.438;13.502;2022-08-19T11:58:46;27.00;1.00
3288;DHT22;3260;52.438;13.502;2022-08-19T12:01:17;27.10;1.00
3288;DHT22;3260;52.438;13.502;2022-08-19T12:03:49;27.80;1.00
3288;DHT22;3260;52.438;13.502;2022-08-19T12:06:21;29.00;1.00
3288;DHT22;3260;52.438;13.502;2022-08-19T12:08:52;30.10;1.00
3288;DHT22;3260;52.438;13.502;2022-08-19T12:11:21;30.20;1.00
3288;DHT22;3260;52.438;13.502;2022-08-19T12:13:49;29.60;1.00
3288;DHT22;3260;52.438;13.502;2022-08-19T12:16:20;29.20;1.00
3288;DHT22;3260;52.438;13.502;2022-08-19T12:18:51;28.60;1.00
3288;DHT22;3260;52.438;13.502;2022-08-19T12:21:24;28.30;1.00
3288;DHT22;3260;52.438;13.502;2022-08-19T12:23:55;28.10;1.00
3288;DHT22;3260;52.438;13.502;2022-08-19T12:26:26;28.10;1.00
3288;DHT22;3260;52.438;13.502;2022-08-19T12:28:59;28.30;1.00
3288;DHT22;3260;52.438;13.502;2022-08-19T12:31:28;28.20;1.00
3288;DHT22;3260;52.438;13.502;2022-08-19T12:33:58;28.60;1.00
3288;DHT22;3260;52.438;13.502;2022-08-19T12:36:29;29.00;1.00
3288;DHT22;3260;52.438;13.502;2022-08-19T12:38:58;29.30;1.00
3288;DHT22;3260;52.438;13.502;2022-08-19T12:41:27;29.30;1.00
3288;DHT22;3260;52.438;13.502;2022-08-19T12:43:55;29.10;1.00
3288;DHT22;3260;52.438;13.502;2022-08-19T12:46:26;28.90;1.00
3288;DHT22;3260;52.438;13.502;2022-08-19T12:48:54;28.80;1.00
3288;DHT22;3260;52.438;13.502;2022-08-19T12:51:30;28.70;1.00
3288;DHT22;3260;52.438;13.502;2022-08-19T12:53:59;28.70;1.00
3288;DHT22;3260;52.438;13.502;2022-08-19T12:56:28;28.90;1.00
3288;DHT22;3260;52.438;13.502;2022-08-19T12:58:56;29.60;1.00
3288;DHT22;3260;52.438;13.502;2022-08-19T13:01:24;31.00;1.00
3288;DHT22;3260;52.438;13.502;2022-08-19T13:03:52;32.40;1.00
3288;DHT22;3260;52.438;13.502;2022-08-19T13:06:22;33.10;1.00
3288;DHT22;3260;52.438;13.502;2022-08-19T13:08:51;32.90;1.00
3288;DHT22;3260;52.438;13.502;2022-08-19T13:11:25;32.00;1.00
3288;DHT22;3260;52.438;13.502;2022-08-19T13:13:53;31.10;1.00
3288;DHT22;3260;52.438;13.502;2022-08-19T13:16:22;30.30;1.00
3288;DHT22;3260;52.438;13.502;2022-08-19T13:18:50;29.80;1.00
3288;DHT22;3260;52.438;13.502;2022-08-19T13:21:22;29.60;1.00
3288;DHT22;3260;52.438;13.502;2022-08-19T13:23:54;29.50;1.00
3288;DHT22;3260;52.438;13.502;2022-08-19T13:26:22;29.40;1.00
3288;DHT22;3260;52.438;13.502;2022-08-19T13:28:51;29.40;1.00
3288;DHT22;3260;52.438;13.502;2022-08-19T13:31:40;29.30;1.00
3288;DHT22;3260;52.438;13.502;2022-08-19T13:34:31;29.30;1.00
3288;DHT22;3260;52.438;13.502;2022-08-19T13:37:04;29.50;1.00
3288;DHT22;3260;52.438;13.502;2022-08-19T13:39:33;29.90;1.00
3288;DHT22;3260;52.438;13.502;2022-08-19T13:42:03;29.80;1.00
3288;DHT22;3260;52.438;13.502;2022-08-19T13:44:33;29.60;1.00
3288;DHT22;3260;52.438;13.502;2022-08-19T13:47:03;29.50;1.00
3288;DHT22;3260;52.438;13.502;2022-08-19T13:49:34;29.50;1.00
3288;DHT22;3260;52.438;13.502;2022-08-19T13:52:05;29.40;1.00
3288;DHT22;3260;52.438;13.502;2022-08-19T13:54:33;29.20;1.00
3288;DHT22;3260;52.438;13.502;2022-08-19T13:57:01;28.70;1.00
3288;DHT22;3260;52.438;13.502;2022-08-19T13:59:30;28.40;1.00
3288;DHT22;3260;52.438;13.502;2022-08-19T14:01:59;28.10;1.00
3288;DHT22;3260;52.438;13.502;2022-08-19T14:04:28;28.00;1.00
3288;DHT22;3260;52.438;13.502;2022-08-19T14:06:56;27.90;1.00
3288;DHT22;3260;52.438;13.502;2022-08-19T14:09:26;27.80;1.00
3288;DHT22;3260;52.438;13.502;2022-08-19T14:11:54;27.80;1.00
3288;DHT22;3260;52.438;13.502;2022-08-19T14:14:22;27.50;1.00
3288;DHT22;3260;52.438;13.502;2022-08-19T14:16:51;27.40;1.00
3288;DHT22;3260;52.438;13.502;2022-08-19T14:19:19;27.30;1.00
3288;DHT22;3260;52.438;13.502;2022-08-19T14:21:49;27.30;1.00
3288;DHT22;3260;52.438;13.502;2022-08-19T14:24:17;27.00;1.00
3288;DHT22;3260;52.438;13.502;2022-08-19T14:26:46;26.80;1.00
3288;DHT22;3260;52.438;13.502;2022-08-19T14:29:15;26.80;1.00
3288;DHT22;3260;52.438;13.502;2022-08-19T14:31:44;26.80;1.00
3288;DHT22;3260;52.438;13.502;2022-08-19T14:34:12;26.70;1.00
3288;DHT22;3260;52.438;13.502;2022-08-19T14:36:40;26.70;1.00
3288;DHT22;3260;52.438;13.502;2022-08-19T14:39:08;26.70;1.00
3288;DHT22;3260;52.438;13.502;2022-08-19T14:41:39;26.60;1.00
3288;DHT22;3260;52.438;13.502;2022-08-19T14:44:09;26.70;1.00
3288;DHT22;3260;52.438;13.502;2022-08-19T14:46:39;26.80;1.00
3288;DHT22;3260;52.438;13.502;2022-08-19T14:49:15;26.80;1.00
3288;DHT22;3260;52.438;13.502;2022-08-19T14:51:43;26.80;1.00
3288;DHT22;3260;52.438;13.502;2022-08-19T14:54:13;26.80;1.00
3288;DHT22;3260;52.438;13.502;2022-08-19T14:56:41;26.70;1.00
3288;DHT22;3260;52.438;13.502;2022-08-19T14:59:11;26.50;1.00
3288;DHT22;3260;52.438;13.502;2022-08-19T15:01:39;26.40;1.00
3288;DHT22;3260;52.438;13.502;2022-08-19T15:04:07;26.40;1.00
3288;DHT22;3260;52.438;13.502;2022-08-19T15:06:36;26.30;1.00
3288;DHT22;3260;52.438;13.502;2022-08-19T15:09:04;26.30;1.00
3288;DHT22;3260;52.438;13.502;2022-08-19T15:11:33;26.30;1.00
3288;DHT22;3260;52.438;13.502;2022-08-19T15:14:01;26.20;1.00
3288;DHT22;3260;52.438;13.502;2022-08-19T15:16:31;26.10;1.00
3288;DHT22;3260;52.438;13.502;2022-08-19T15:18:59;26.10;1.00
3288;DHT22;3260;52.438;13.502;2022-08-19T15:21:29;26.10;1.00
3288;DHT22;3260;52.438;13.502;2022-08-19T15:23:58;26.00;1.00
3288;DHT22;3260;52.438;13.502;2022-08-19T15:26:27;25.90;1.00
3288;DHT22;3260;52.438;13.502;2022-08-19T15:28:59;25.80;1.00
3288;DHT22;3260;52.438;13.502;2022-08-19T15:31:30;25.60;1.00
3288;DHT22;3260;52.438;13.502;2022-08-19T15:34:03;25.30;1.00
3288;DHT22;3260;52.438;13.502;2022-08-19T15:36:32;25.10;1.00
3288;DHT22;3260;52.438;13.502;2022-08-19T15:39:02;25.00;1.00
3288;DHT22;3260;52.438;13.502;2022-08-19T15:41:32;24.80;1.00
3288;DHT22;3260;52.438;13.502;2022-08-19T15:44:04;24.80;1.00
3288;DHT22;3260;52.438;13.502;2022-08-19T15:46:38;24.70;1.00
3288;DHT22;3260;52.438;13.502;2022-08-19T15:49:08;24.80;1.00
3288;DHT22;3260;52.438;13.502;2022-08-19T15:51:39;24.80;1.00
3288;DHT22;3260;52.438;13.502;2022-08-19T15:54:14;24.80;1.00
3288;DHT22;3260;52.438;13.502;2022-08-19T15:56:48;24.80;1.00
3288;DHT22;3260;52.438;13.502;2022-08-19T15:59:36;24.70;1.00
3288;DHT22;3260;52.438;13.502;2022-08-19T16:02:27;24.80;1.00
3288;DHT22;3260;52.438;13.502;2022-08-19T16:05:16;24.70;1.00
3288;DHT22;3260;52.438;13.502;2022-08-19T16:08:12;24.60;1.00
3288;DHT22;3260;52.438;13.502;2022-08-19T16:10:41;24.60;1.00
3288;DHT22;3260;52.438;13.502;2022-08-19T16:13:09;24.60;1.00
3288;DHT22;3260;52.438;13.502;2022-08-19T16:15:37;24.50;1.00
3288;DHT22;3260;52.438;13.502;2022-08-19T16:18:11;24.50;1.00
3288;DHT22;3260;52.438;13.502;2022-08-19T16:20:39;24.50;1.00
3288;DHT22;3260;52.438;13.502;2022-08-19T16:23:08;24.40;1.00
3288;DHT22;3260;52.438;13.502;2022-08-19T16:25:36;24.40;1.00
3288;DHT22;3260;52.438;13.502;2022-08-19T16:28:04;24.40;1.00
3288;DHT22;3260;52.438;13.502;2022-08-19T16:30:37;24.50;1.00
3288;DHT22;3260;52.438;13.502;2022-08-19T16:33:07;24.50;1.00
3288;DHT22;3260;52.438;13.502;2022-08-19T16:35:37;24.60;1.00
3288;DHT22;3260;52.438;13.502;2022-08-19T16:38:05;24.70;1.00
3288;DHT22;3260;52.438;13.502;2022-08-19T16:40:34;24.80;1.00
3288;DHT22;3260;52.438;13.502;2022-08-19T16:43:03;25.00;1.00
3288;DHT22;3260;52.438;13.502;2022-08-19T16:45:31;25.10;1.00
3288;DHT22;3260;52.438;13.502;2022-08-19T16:47:59;25.20;1.00
3288;DHT22;3260;52.438;13.502;2022-08-19T16:50:27;25.20;1.00
3288;DHT22;3260;52.438;13.502;2022-08-19T16:53:18;25.20;1.00
3288;DHT22;3260;52.438;13.502;2022-08-19T16:55:48;25.20;1.00
3288;DHT22;3260;52.438;13.502;2022-08-19T16:58:24;25.30;1.00
3288;DHT22;3260;52.438;13.502;2022-08-19T17:00:55;25.30;1.00
3288;DHT22;3260;52.438;13.502;2022-08-19T17:03:30;25.20;1.00
3288;DHT22;3260;52.438;13.502;2022-08-19T17:06:07;25.10;1.00
3288;DHT22;3260;52.438;13.502;2022-08-19T17:08:49;25.00;1.00
3288;DHT22;3260;52.438;13.502;2022-08-19T17:11:18;24.90;1.00
3288;DHT22;3260;52.438;13.502;2022-08-19T17:13:48;24.80;1.00
3288;DHT22;3260;52.438;13.502;2022-08-19T17:16:19;24.60;1.00
3288;DHT22;3260;52.438;13.502;2022-08-19T17:18:50;24.50;1.00
3288;DHT22;3260;52.438;13.502;2022-08-19T17:21:19;24.40;1.00
3288;DHT22;3260;52.438;13.502;2022-08-19T17:23:50;24.30;1.00
3288;DHT22;3260;52.438;13.502;2022-08-19T17:26:18;24.20;1.00
3288;DHT22;3260;52.438;13.502;2022-08-19T17:28:48;24.10;1.00
3288;DHT22;3260;52.438;13.502;2022-08-19T17:31:20;24.10;1.00
3288;DHT22;3260;52.438;13.502;2022-08-19T17:33:50;24.10;1.00
3288;DHT22;3260;52.438;13.502;2022-08-19T17:36:21;24.10;1.00
3288;DHT22;3260;52.438;13.502;2022-08-19T17:38:53;24.10;1.00
3288;DHT22;3260;52.438;13.502;2022-08-19T17:41:23;24.00;1.00
3288;DHT22;3260;52.438;13.502;2022-08-19T17:43:53;23.80;1.00
3288;DHT22;3260;52.438;13.502;2022-08-19T17:46:21;23.80;1.00
3288;DHT22;3260;52.438;13.502;2022-08-19T17:48:51;23.70;1.00
3288;DHT22;3260;52.438;13.502;2022-08-19T17:51:36;23.60;1.00
3288;DHT22;3260;52.438;13.502;2022-08-19T17:54:10;23.50;1.00
3288;DHT22;3260;52.438;13.502;2022-08-19T17:56:41;23.50;1.00
3288;DHT22;3260;52.438;13.502;2022-08-19T17:59:11;23.50;1.00
3288;DHT22;3260;52.438;13.502;2022-08-19T18:01:41;23.40;1.00
3288;DHT22;3260;52.438;13.502;2022-08-19T18:04:20;23.40;1.00
3288;DHT22;3260;52.438;13.502;2022-08-19T18:06:50;23.40;1.00
3288;DHT22;3260;52.438;13.502;2022-08-19T18:09:27;23.40;1.00
3288;DHT22;3260;52.438;13.502;2022-08-19T18:12:09;23.30;1.00
3288;DHT22;3260;52.438;13.502;2022-08-19T18:14:40;23.30;1.00
3288;DHT22;3260;52.438;13.502;2022-08-19T18:17:11;23.20;1.00
3288;DHT22;3260;52.438;13.502;2022-08-19T18:19:43;23.10;1.00
3288;DHT22;3260;52.438;13.502;2022-08-19T18:22:22;23.10;1.00
3288;DHT22;3260;52.438;13.502;2022-08-19T18:24:54;23.10;1.00
3288;DHT22;3260;52.438;13.502;2022-08-19T18:27:24;23.10;1.00
3288;DHT22;3260;52.438;13.502;2022-08-19T18:29:53;23.00;1.00
3288;DHT22;3260;52.438;13.502;2022-08-19T18:32:25;22.90;1.00
3288;DHT22;3260;52.438;13.502;2022-08-19T18:34:54;23.00;1.00
3288;DHT22;3260;52.438;13.502;2022-08-19T18:37:22;23.00;1.00
3288;DHT22;3260;52.438;13.502;2022-08-19T18:39:53;22.90;1.00
3288;DHT22;3260;52.438;13.502;2022-08-19T18:42:43;22.90;1.00
3288;DHT22;3260;52.438;13.502;2022-08-19T18:45:45;22.90;1.00
3288;DHT22;3260;52.438;13.502;2022-08-19T18:48:33;22.90;1.00
3288;DHT22;3260;52.438;13.502;2022-08-19T18:51:19;22.90;1.00
3288;DHT22;3260;52.438;13.502;2022-08-19T18:53:54;22.90;1.00
3288;DHT22;3260;52.438;13.502;2022-08-19T18:56:26;22.90;1.00
3288;DHT22;3260;52.438;13.502;2022-08-19T18:58:58;22.90;1.00
3288;DHT22;3260;52.438;13.502;2022-08-19T19:01:29;22.90;1.00
3288;DHT22;3260;52.438;13.502;2022-08-19T19:04:01;23.00;1.00
3288;DHT22;3260;52.438;13.502;2022-08-19T19:06:37;23.00;1.00
3288;DHT22;3260;52.438;13.502;2022-08-19T19:09:07;23.00;1.00
3288;DHT22;3260;52.438;13.502;2022-08-19T19:11:40;23.00;1.00
3288;DHT22;3260;52.438;13.502;2022-08-19T19:14:18;23.10;1.00
3288;DHT22;3260;52.438;13.502;2022-08-19T19:17:12;23.10;1.00
3288;DHT22;3260;52.438;13.502;2022-08-19T19:19:41;23.10;1.00
3288;DHT22;3260;52.438;13.502;2022-08-19T19:22:12;23.10;1.00
3288;DHT22;3260;52.438;13.502;2022-08-19T19:24:43;23.00;1.00
3288;DHT22;3260;52.438;13.502;2022-08-19T19:27:14;23.00;1.00
3288;DHT22;3260;52.438;13.502;2022-08-19T19:29:46;23.00;1.00
3288;DHT22;3260;52.438;13.502;2022-08-19T19:32:21;23.00;1.00
3288;DHT22;3260;52.438;13.502;2022-08-19T19:34:52;23.10;1.00
3288;DHT22;3260;52.438;13.502;2022-08-19T19:37:20;23.10;1.00
3288;DHT22;3260;52.438;13.502;2022-08-19T19:39:49;23.10;1.00
3288;DHT22;3260;52.438;13.502;2022-08-19T19:42:20;23.20;1.00
3288;DHT22;3260;52.438;13.502;2022-08-19T19:44:51;23.20;1.00
3288;DHT22;3260;52.438;13.502;2022-08-19T19:47:22;23.20;1.00
3288;DHT22;3260;52.438;13.502;2022-08-19T19:49:53;23.20;1.00
3288;DHT22;3260;52.438;13.502;2022-08-19T19:52:43;23.20;1.00
3288;DHT22;3260;52.438;13.502;2022-08-19T19:55:13;23.10;1.00
3288;DHT22;3260;52.438;13.502;2022-08-19T19:57:47;23.00;1.00
3288;DHT22;3260;52.438;13.502;2022-08-19T20:00:16;23.00;1.00
3288;DHT22;3260;52.438;13.502;2022-08-19T20:02:45;23.00;1.00
3288;DHT22;3260;52.438;13.502;2022-08-19T20:05:17;23.10;1.00
3288;DHT22;3260;52.438;13.502;2022-08-19T20:07:47;23.10;1.00
3288;DHT22;3260;52.438;13.502;2022-08-19T20:10:34;23.10;1.00
3288;DHT22;3260;52.438;13.502;2022-08-19T20:13:05;23.10;1.00
3288;DHT22;3260;52.438;13.502;2022-08-19T20:15:35;23.10;1.00
3288;DHT22;3260;52.438;13.502;2022-08-19T20:18:09;23.10;1.00
3288;DHT22;3260;52.438;13.502;2022-08-19T20:20:40;23.10;1.00
3288;DHT22;3260;52.438;13.502;2022-08-19T20:23:10;23.10;1.00
3288;DHT22;3260;52.438;13.502;2022-08-19T20:25:39;23.10;1.00
3288;DHT22;3260;52.438;13.502;2022-08-19T20:28:11;23.10;1.00
3288;DHT22;3260;52.438;13.502;2022-08-19T20:30:39;23.10;1.00
3288;DHT22;3260;52.438;13.502;2022-08-19T20:33:13;23.10;1.00